Thunder radar more information blitzortung!


Radar de pluja more information rain snow radar


Visita la nostra xarxa de llocs de meteo:

Template documentation
and downloads

And another site



No particular awareness of the weather is required.    There are no Weather-warnings

Pagina Historial Weather Underground text

Diari Resum May 31, 2017 Unitats:  Mètric    Imperial   Tant
« Previous Dia
SegĂźent Dia »
Diari Setmana Mensual Anual Personalitzada
  Maxima: Minima: Media:
Temperatura: -17.8 °C -9.1 °C -5.7 °C
Punt de rosada: -17.8 °C -13 °C -12.1 °C
Humitat: Humidity % 35 % 48 %
Wind Speed: 0 km/h 0 km/h 9.8 km/h
RĂ fegues de vent: 0 km/h - -
Vent:- - SE
Pression baro: 0 hPa 34428.8 hPa -
Precipitacions: 0 mm    
Historical Graphs
 
 
Dades de taula per May 31, 2017
Temps Temperatura Punt de rosada Pression baro Vent Wind Speed RĂ fegues de vent Humitat Rainfall Rate (Hourly)
-17.8 °C -17.8 °C 0 hPa Calm     Humidity % 0 mm
00:04 -7.9 °C -12.7 °C 34462.7 hPa Calm     57 % 0 mm
00:05 -9.1 °C -12.7 °C 34462.7 hPa Calm   5.1 km/h 65 % 0 mm
00:15 -9.1 °C -12.7 °C 34462.7 hPa West 2.6 km/h 5.1 km/h 65 % 0 mm
00:25 -8.9 °C -12.6 °C 34462.7 hPa WSW 5.1 km/h 7.7 km/h 65 % 0 mm
00:35 -8.9 °C -12.6 °C 34462.7 hPa WSW 2.6 km/h 5.1 km/h 65 % 0 mm
00:45 -8.9 °C -12.6 °C 34462.7 hPa Calm   7.7 km/h 65 % 0 mm
00:55 -9 °C -12.7 °C 34428.8 hPa West 2.6 km/h 5.1 km/h 65 % 0 mm
01:05 -8.9 °C -12.6 °C 34462.7 hPa WSW 2.6 km/h 7.7 km/h 65 % 0 mm
01:15 -9 °C -12.7 °C 34462.7 hPa SW 2.6 km/h 5.1 km/h 65 % 0 mm
01:25 -9 °C -12.7 °C 34462.7 hPa SW 2.6 km/h 5.1 km/h 65 % 0 mm
01:35 -9 °C -12.7 °C 34462.7 hPa Calm   5.1 km/h 65 % 0 mm
01:45 -9 °C -12.7 °C 34462.7 hPa Calm   2.6 km/h 65 % 0 mm
01:55 -8.9 °C -12.4 °C 34462.7 hPa Calm     66 % 0 mm
02:05 -8.8 °C -12.3 °C 34462.7 hPa Calm   5.1 km/h 66 % 0 mm
02:15 -8.8 °C -12.3 °C 34462.7 hPa North 2.6 km/h 5.1 km/h 66 % 0 mm
02:25 -8.9 °C -12.4 °C 34496.6 hPa Calm   5.1 km/h 66 % 0 mm
02:35 -8.8 °C -12.4 °C 34496.6 hPa WSW 2.6 km/h 5.1 km/h 66 % 0 mm
02:45 -8.8 °C -12.3 °C 34496.6 hPa WSW 2.6 km/h 2.6 km/h 66 % 0 mm
02:55 -8.7 °C -12.3 °C 34496.6 hPa Calm     66 % 0 mm
03:05 -8.7 °C -12.3 °C 34496.6 hPa Calm   2.6 km/h 65 % 0 mm
03:15 -8.5 °C -12.1 °C 34496.6 hPa Calm   2.6 km/h 66 % 0 mm
03:25 -8.3 °C -12 °C 34496.6 hPa Calm     65 % 0 mm
03:35 -7.9 °C -11.8 °C 34496.6 hPa North 2.6 km/h 5.1 km/h 64 % 0 mm
03:45 -7.6 °C -11.6 °C 34496.6 hPa NE 2.6 km/h 5.1 km/h 63 % 0 mm
03:55 -7.6 °C -11.6 °C 34496.6 hPa NE 7.7 km/h 10.3 km/h 63 % 0 mm
04:05 -7.3 °C -11.3 °C 34496.6 hPa NNE 2.6 km/h 7.7 km/h 63 % 0 mm
04:15 -7 °C -11.4 °C 34496.6 hPa NNE 5.1 km/h 5.1 km/h 60 % 0 mm
04:25 -6.9 °C -11.4 °C 34496.6 hPa ENE 2.6 km/h 7.7 km/h 60 % 0 mm
04:35 -6.8 °C -11.4 °C 34496.6 hPa ENE 5.1 km/h 10.3 km/h 59 % 0 mm
04:45 -6.7 °C -11.3 °C 34496.6 hPa NE 5.1 km/h 10.3 km/h 59 % 0 mm
04:55 -6.3 °C -11.1 °C 34496.6 hPa NE 2.6 km/h 7.7 km/h 58 % 0 mm
05:05 -6.4 °C -11.2 °C 34496.6 hPa NE 7.7 km/h 10.3 km/h 58 % 0 mm
05:15 -6.6 °C -11.3 °C 34496.6 hPa NE 2.6 km/h 18.2 km/h 58 % 0 mm
05:25 -6.5 °C -11.2 °C 34496.6 hPa NE 7.7 km/h 10.3 km/h 58 % 0 mm
05:35 -6.3 °C -11.1 °C 34533.8 hPa NE 5.1 km/h 15.6 km/h 58 % 0 mm
05:40 -6.3 °C -11.2 °C 34533.8 hPa NNE 7.7 km/h 7.7 km/h 57 % 0 mm
10:42 -6.2 °C -11.2 °C 34533.8 hPa NE 10.3 km/h 10.3 km/h 57 % 0 mm
10:43 -6.2 °C -11.2 °C 34533.8 hPa NE 11.9 km/h 11.9 km/h 57 % 0 mm
10:48 -6.1 °C -11 °C 34533.8 hPa NE 11.9 km/h 11.9 km/h 57 % 0 mm
10:53 -6 °C -11.1 °C 34496.6 hPa North 15 km/h 15 km/h 56 % 0 mm
10:58 -5.9 °C -10.9 °C 34496.6 hPa NNE 11.9 km/h 11.9 km/h 56 % 0 mm
11:03 -5.7 °C -10.9 °C 34496.6 hPa North 9 km/h 9 km/h 55 % 0 mm
11:08 -5.4 °C -10.9 °C 34496.6 hPa ENE 6 km/h 6 km/h 54 % 0 mm
11:13 -5.4 °C -11.2 °C 34496.6 hPa ENE 9 km/h 9 km/h 52 % 0 mm
11:18 -5.2 °C -11.1 °C 34496.6 hPa ENE 9 km/h 9 km/h 51 % 0 mm
11:23 -5.2 °C -11.3 °C 34496.6 hPa ESE 6.3 km/h 6.3 km/h 50 % 0 mm
11:28 -4.8 °C -11.2 °C 34496.6 hPa SE 6 km/h 6 km/h 48 % 0 mm
11:33 -4.7 °C -11.2 °C 34496.6 hPa NNE 11.9 km/h 11.9 km/h 48 % 0 mm
11:38 -4.7 °C -11.2 °C 34496.6 hPa ENE 12.7 km/h 12.7 km/h 48 % 0 mm
11:43 -4.4 °C -10.9 °C 34496.6 hPa North 11.9 km/h 11.9 km/h 48 % 0 mm
11:48 -4.5 °C -11.2 °C 34496.6 hPa NE 15 km/h 15 km/h 47 % 0 mm
11:53 -4.6 °C -11.3 °C 34496.6 hPa ENE 10.3 km/h 10.3 km/h 47 % 0 mm
11:58 -4.6 °C -11.2 °C 34496.6 hPa NE 15 km/h 15 km/h 47 % 0 mm
12:03 -4.6 °C -11.4 °C 34496.6 hPa NNE 11.9 km/h 11.9 km/h 46 % 0 mm
12:08 -4.4 °C -11.2 °C 34496.6 hPa ENE 11.9 km/h 11.9 km/h 46 % 0 mm
12:13 -4.5 °C -11.3 °C 34496.6 hPa ENE 11.9 km/h 11.9 km/h 46 % 0 mm
12:18 -4.2 °C -11.1 °C 34496.6 hPa ESE 9 km/h 9 km/h 46 % 0 mm
12:23 -4.2 °C -11.2 °C 34496.6 hPa SSE 9 km/h 9 km/h 45 % 0 mm
12:28 -4.1 °C -11.2 °C 34496.6 hPa NE 11.1 km/h 11.1 km/h 45 % 0 mm
12:33 -4.1 °C -11.2 °C 34496.6 hPa NE 11.9 km/h 11.9 km/h 45 % 0 mm
12:38 -4.2 °C -11.4 °C 34496.6 hPa NW 11.9 km/h 11.9 km/h 44 % 0 mm
12:43 -3.8 °C -11.1 °C 34496.6 hPa SW 6 km/h 6 km/h 44 % 0 mm
12:48 -3.6 °C -10.9 °C 34496.6 hPa ENE 6 km/h 6 km/h 44 % 0 mm
12:53 -3.6 °C -11.3 °C 34496.6 hPa SSE 9 km/h 9 km/h 42 % 0 mm
12:58 -3.5 °C -11.2 °C 34496.6 hPa ENE 6 km/h 6 km/h 42 % 0 mm
13:03 -3.3 °C -10.9 °C 34496.6 hPa East 3.1 km/h 3.1 km/h 43 % 0 mm
13:08 -3.4 °C -11.1 °C 34462.7 hPa East 6 km/h 6.8 km/h 42 % 0 mm
13:13 -3.4 °C -11.1 °C 34462.7 hPa NE 11.9 km/h 11.9 km/h 42 % 0 mm
13:18 -3.4 °C -11.3 °C 34462.7 hPa NE 11.9 km/h 11.9 km/h 41 % 0 mm
13:23 -3.4 °C -11.3 °C 34462.7 hPa East 8 km/h 8 km/h 41 % 0 mm
13:28 -3.3 °C -11.3 °C 34462.7 hPa NE 7.6 km/h 7.6 km/h 41 % 0 mm
13:33 -3.2 °C -11.3 °C 34462.7 hPa NNW 15 km/h 15 km/h 40 % 0 mm
13:38 -3.4 °C -11.8 °C 34462.7 hPa NE 20.9 km/h 20.9 km/h 39 % 0 mm
13:43 -3.2 °C -11.3 °C 34462.7 hPa West 15.3 km/h 15.3 km/h 40 % 0 mm
13:48 -3.3 °C -11.7 °C 34462.7 hPa SW 15 km/h 15 km/h 39 % 0 mm
13:53 -3.2 °C -11.6 °C 34462.7 hPa ENE 14 km/h 14 km/h 39 % 0 mm
13:56 -3.3 °C -11.6 °C 34462.7 hPa NE 11.9 km/h 11.9 km/h 39 % 0 mm
14:01 -3.3 °C -11.9 °C 34462.7 hPa SSE 15.6 km/h 15.6 km/h 38 % 0 mm
14:06 -3.4 °C -11.7 °C 34462.7 hPa SW 9.3 km/h 9.3 km/h 39 % 0 mm
14:11 -3.2 °C -12.1 °C 34462.7 hPa ESE 17.9 km/h 17.9 km/h 37 % 0 mm
14:16 -3.4 °C -12.2 °C 34462.7 hPa ESE 11.9 km/h 11.9 km/h 37 % 0 mm
14:21 -3.3 °C -12.1 °C 34428.8 hPa ESE 17.9 km/h 17.9 km/h 37 % 0 mm
14:26 -3.2 °C -11.8 °C 34428.8 hPa ESE 11.9 km/h 11.9 km/h 38 % 0 mm
14:31 -3.2 °C -11.8 °C 34428.8 hPa WNW 6.8 km/h 6.8 km/h 38 % 0 mm
14:36 -2.9 °C -11.8 °C 34428.8 hPa East 15 km/h 15 km/h 37 % 0 mm
14:41 -2.8 °C -11.6 °C 34428.8 hPa WSW 5.1 km/h 5.1 km/h 37 % 0 mm
14:46 -2.7 °C -11.6 °C 34428.8 hPa NNE 15 km/h 15 km/h 37 % 0 mm
14:51 -2.8 °C -11.7 °C 34462.7 hPa East 7.6 km/h 7.6 km/h 37 % 0 mm
14:56 -2.6 °C -11.4 °C 34462.7 hPa SSE 15.3 km/h 15.3 km/h 37 % 0 mm
15:01 -2.5 °C -11.4 °C 34462.7 hPa SSW 11.9 km/h 11.9 km/h 37 % 0 mm
15:06 -2.4 °C -11.3 °C 34462.7 hPa SSW 11.9 km/h 11.9 km/h 37 % 0 mm
15:11 -2 °C -10.9 °C 34462.7 hPa SW 9.3 km/h 9.3 km/h 37 % 0 mm
15:16 -2.1 °C -11.2 °C 34462.7 hPa East 15 km/h 15 km/h 36 % 0 mm
15:21 -2.4 °C -11.5 °C 34462.7 hPa ENE 15 km/h 15 km/h 36 % 0 mm
15:26 -2.7 °C -11.8 °C 34462.7 hPa SSE 17.9 km/h 20.9 km/h 36 % 0 mm
15:31 -2.7 °C -11.8 °C 34462.7 hPa East 11.9 km/h 11.9 km/h 36 % 0 mm
15:36 -2.9 °C -11.5 °C 34462.7 hPa SW 11.9 km/h 11.9 km/h 38 % 0 mm
15:41 -2.8 °C -11.7 °C 34462.7 hPa SE 32.8 km/h 32.8 km/h 37 % 0 mm
15:46 -3 °C -11.8 °C 34462.7 hPa ESE 20.9 km/h 20.9 km/h 37 % 0 mm
15:51 -3.1 °C -11.9 °C 34428.8 hPa SSW 17.9 km/h 17.9 km/h 37 % 0 mm
15:56 -3.1 °C -11.9 °C 34428.8 hPa ENE 17.9 km/h 17.9 km/h 37 % 0 mm
16:01 -2.9 °C -11.8 °C 34428.8 hPa SSE 11.9 km/h 11.9 km/h 37 % 0 mm
16:06 -2.9 °C -11.7 °C 34462.7 hPa SE 23.8 km/h 23.8 km/h 37 % 0 mm
16:11 -2.5 °C -11.4 °C 34462.7 hPa South 14 km/h 14 km/h 37 % 0 mm
16:16 -2.3 °C -11.2 °C 34462.7 hPa SSW 15 km/h 15 km/h 37 % 0 mm
16:21 -2 °C -11.2 °C 34462.7 hPa South 15 km/h 15 km/h 36 % 0 mm
16:26 -2.8 °C -11.7 °C 34462.7 hPa NE 15 km/h 15 km/h 37 % 0 mm
16:31 -2.8 °C -11.9 °C 34462.7 hPa SSE 15.6 km/h 15.6 km/h 36 % 0 mm
16:36 -2.9 °C -11.7 °C 34462.7 hPa ESE 12.7 km/h 12.7 km/h 37 % 0 mm
16:41 -3.1 °C -12.1 °C 34462.7 hPa ENE 31.4 km/h 31.4 km/h 36 % 0 mm
16:46 -3.2 °C -12.2 °C 34462.7 hPa SE 17.9 km/h 17.9 km/h 36 % 0 mm
16:51 -3.4 °C -12.4 °C 34462.7 hPa East 20.9 km/h 20.9 km/h 36 % 0 mm
16:56 -3.4 °C -12.4 °C 34462.7 hPa ESE 20.9 km/h 20.9 km/h 36 % 0 mm
17:01 -3.7 °C -12.9 °C 34462.7 hPa East 23.8 km/h 23.8 km/h 35 % 0 mm
17:06 -3.7 °C -12.9 °C 34428.8 hPa East 20.9 km/h 20.9 km/h 35 % 0 mm
17:11 -3.6 °C -12.8 °C 34428.8 hPa ESE 23.8 km/h 23.8 km/h 35 % 0 mm
17:16 -3.6 °C -12.8 °C 34428.8 hPa ENE 20.9 km/h 20.9 km/h 35 % 0 mm
17:21 -3.7 °C -12.9 °C 34462.7 hPa East 26.9 km/h 26.9 km/h 35 % 0 mm
17:26 -3.8 °C -13 °C 34462.7 hPa ESE 26.9 km/h 26.9 km/h 35 % 0 mm
17:31 -3.9 °C -12.9 °C 34462.7 hPa East 26.9 km/h 26.9 km/h 36 % 0 mm
17:36 -3.9 °C -12.9 °C 34462.7 hPa ESE 29.8 km/h 29.8 km/h 36 % 0 mm
17:37 -3.9 °C -12.7 °C 34462.7 hPa ESE 23.8 km/h 23.8 km/h 37 % 0 mm
17:42 -4.1 °C -12.8 °C 34462.7 hPa ENE 23.8 km/h 23.8 km/h 37 % 0 mm
17:47 -4.2 °C -12.9 °C 34462.7 hPa SSE 29.8 km/h 29.8 km/h 37 % 0 mm
17:52 -4.1 °C -12.8 °C 34428.8 hPa SE 27.7 km/h 27.7 km/h 37 % 0 mm
17:57 -4.2 °C -12.9 °C 34428.8 hPa SE 20.9 km/h 20.9 km/h 37 % 0 mm
18:02 -4.2 °C -12.9 °C 34428.8 hPa ESE 22.5 km/h 22.5 km/h 37 % 0 mm
18:07 -4.3 °C -12.9 °C 34462.7 hPa ESE 26.9 km/h 26.9 km/h 37 % 0 mm
18:12 -4.4 °C -12.8 °C 34462.7 hPa ESE 24.3 km/h 24.3 km/h 38 % 0 mm
18:17 -4.3 °C -13 °C 34462.7 hPa South 27.2 km/h 27.2 km/h 37 % 0 mm
18:22 -4.3 °C -13 °C 34428.8 hPa SE 26.9 km/h 26.9 km/h 37 % 0 mm
18:27 -4.4 °C -12.8 °C 34428.8 hPa East 20.9 km/h 20.9 km/h 38 % 0 mm
18:32 -4.4 °C -12.9 °C 34428.8 hPa ESE 22.5 km/h 22.5 km/h 38 % 0 mm
18:37 -4.3 °C -12.8 °C 34428.8 hPa ESE 33.2 km/h 33.2 km/h 38 % 0 mm
18:42 -4.4 °C -12.9 °C 34428.8 hPa ESE 26.9 km/h 26.9 km/h 38 % 0 mm
18:47 -4.4 °C -12.9 °C 34428.8 hPa ESE 20.9 km/h 20.9 km/h 38 % 0 mm
18:52 -4.3 °C -12.8 °C 34428.8 hPa ESE 20.9 km/h 20.9 km/h 38 % 0 mm
18:57 -4.5 °C -12.7 °C 34428.8 hPa SSE 22.5 km/h 22.5 km/h 39 % 0 mm
19:02 -4.6 °C -12.8 °C 34428.8 hPa East 20.9 km/h 20.9 km/h 39 % 0 mm
19:07 -4.5 °C -12.7 °C 34428.8 hPa East 17.9 km/h 17.9 km/h 39 % 0 mm
19:12 -4.6 °C -12.8 °C 34428.8 hPa SE 23.8 km/h 23.8 km/h 39 % 0 mm
19:15 -7.3 °C -12.2 °C 34533.8 hPa Calm   2.6 km/h 57 % 0 mm
19:17 -4.6 °C -12.8 °C 34428.8 hPa ESE 17.9 km/h 17.9 km/h 39 % 0 mm
19:22 -4.6 °C -12.8 °C 34428.8 hPa SSE 15.3 km/h 15.3 km/h 39 % 0 mm
19:25 -7.4 °C -12.2 °C 34496.6 hPa Calm   2.6 km/h 57 % 0 mm
19:27 -4.7 °C -12.9 °C 34428.8 hPa East 15.3 km/h 15.3 km/h 39 % 0 mm
19:32 -4.7 °C -12.9 °C 34428.8 hPa SSE 25.4 km/h 25.4 km/h 39 % 0 mm
19:35 -7.6 °C -12.4 °C 34496.6 hPa Calm     57 % 0 mm
19:37 -4.8 °C -13 °C 34428.8 hPa ESE 15 km/h 15 km/h 39 % 0 mm
19:42 -4.9 °C -12.9 °C 34428.8 hPa ESE 17.9 km/h 17.9 km/h 40 % 0 mm
19:45 -7.8 °C -12.6 °C 34496.6 hPa WNW 2.6 km/h 5.1 km/h 57 % 0 mm
19:46 -4.9 °C -12.9 °C 34428.8 hPa East 17.9 km/h 17.9 km/h 40 % 0 mm
19:51 -4.8 °C -12.8 °C 34462.7 hPa SSW 9 km/h 9 km/h 40 % 0 mm
19:55 -7.9 °C -12.6 °C 34496.6 hPa Calm   2.6 km/h 58 % 0 mm
19:56 -4.8 °C -12.6 °C 34462.7 hPa ESE 15.6 km/h 15.6 km/h 41 % 0 mm
20:01 -4.9 °C -12.7 °C 34462.7 hPa ESE 11.9 km/h 11.9 km/h 41 % 0 mm
20:05 -8.1 °C -12.7 °C 34496.6 hPa WSW 5.1 km/h 5.1 km/h 58 % 0 mm
20:06 -4.9 °C -12.7 °C 34462.7 hPa SSE 7.6 km/h 7.6 km/h 41 % 0 mm
20:11 -5.1 °C -12.6 °C 34462.7 hPa ESE 11.9 km/h 11.9 km/h 42 % 0 mm
20:15 -8.2 °C -12.8 °C 34496.6 hPa SW 5.1 km/h 7.7 km/h 58 % 0 mm
20:16 -5.1 °C -12.6 °C 34462.7 hPa SSW 6 km/h 6 km/h 42 % 0 mm
20:21 -5.1 °C -12.7 °C 34462.7 hPa East 15 km/h 15 km/h 42 % 0 mm
20:25 -8.3 °C -12.8 °C 34496.6 hPa Calm   5.1 km/h 59 % 0 mm
20:26 -5.2 °C -12.6 °C 34462.7 hPa ESE 15 km/h 15 km/h 43 % 0 mm
20:31 -5.2 °C -12.4 °C 34462.7 hPa ESE 9 km/h 9 km/h 44 % 0 mm
20:35 -8.4 °C -12.6 °C 34496.6 hPa Calm   5.1 km/h 61 % 0 mm
20:36 -5.3 °C -12.4 °C 34462.7 hPa ESE 11.9 km/h 11.9 km/h 44 % 0 mm
20:41 -5.4 °C -12.4 °C 34462.7 hPa ESE 15 km/h 15 km/h 45 % 0 mm
20:45 -8.4 °C -12.7 °C 34496.6 hPa Calm     61 % 0 mm
20:46 -5.5 °C -12.3 °C 34462.7 hPa East 9.3 km/h 9.3 km/h 46 % 0 mm
20:51 -5.6 °C -12.3 °C 34462.7 hPa SE 11.9 km/h 11.9 km/h 46 % 0 mm
20:55 -8.4 °C -12.5 °C 34496.6 hPa Calm   2.6 km/h 62 % 0 mm
20:56 -5.7 °C -12.2 °C 34462.7 hPa ESE 15 km/h 15 km/h 47 % 0 mm
21:01 -5.7 °C -12.3 °C 34462.7 hPa ESE 9 km/h 9 km/h 47 % 0 mm
21:05 -8.4 °C -12.5 °C 34496.6 hPa Calm   2.6 km/h 62 % 0 mm
21:06 -5.8 °C -12.2 °C 34428.8 hPa ESE 11.9 km/h 11.9 km/h 48 % 0 mm
21:11 -5.9 °C -12.3 °C 34428.8 hPa ENE 6 km/h 6 km/h 48 % 0 mm
21:15 -8.5 °C -12.6 °C 34496.6 hPa Calm   5.1 km/h 62 % 0 mm
21:16 -5.9 °C -12.3 °C 34428.8 hPa East 11.9 km/h 11.9 km/h 48 % 0 mm
21:21 -6.1 °C -12.4 °C 34462.7 hPa SSW 11.9 km/h 11.9 km/h 48 % 0 mm
21:25 -8.5 °C -12.7 °C 34496.6 hPa NE 2.6 km/h   61 % 0 mm
21:26 -6.1 °C -12.4 °C 34462.7 hPa ESE 5.1 km/h 5.1 km/h 48 % 0 mm
21:31 -6.1 °C -12.3 °C 34462.7 hPa NE 9 km/h 9 km/h 49 % 0 mm
21:35 -8.4 °C -12.7 °C 34496.6 hPa Calm     61 % 0 mm
21:36 -6.2 °C -12.2 °C 34462.7 hPa ESE 9 km/h 9 km/h 50 % 0 mm
21:41 -6.2 °C -12.1 °C 34462.7 hPa ESE 9 km/h 9 km/h 51 % 0 mm
21:45 -8.3 °C -12.7 °C 34496.6 hPa Calm     60 % 0 mm
21:46 -6.3 °C -12.1 °C 34462.7 hPa East 3.1 km/h   51 % 0 mm
21:51 -6.3 °C -12.2 °C 34462.7 hPa ESE 7.6 km/h 7.6 km/h 51 % 0 mm
21:55 -8.4 °C -12.4 °C 34496.6 hPa Calm     62 % 0 mm
21:56 -6.3 °C -12.2 °C 34462.7 hPa NE 3.7 km/h 3.7 km/h 51 % 0 mm
22:01 -6.4 °C -12.2 °C 34462.7 hPa SSW 3.1 km/h 3.1 km/h 51 % 0 mm
22:05 -8.6 °C -12.7 °C 34496.6 hPa Calm   5.1 km/h 62 % 0 mm
22:06 -6.4 °C -12.3 °C 34496.6 hPa Calm     51 % 0 mm
22:11 -6.5 °C -12.3 °C 34496.6 hPa SW 3.1 km/h 3.1 km/h 51 % 0 mm
22:15 -8.7 °C -12.9 °C 34496.6 hPa SW 2.6 km/h 5.1 km/h 61 % 0 mm
22:16 -6.6 °C -12.2 °C 34496.6 hPa SW 4.2 km/h 4.2 km/h 52 % 0 mm
22:21 -6.6 °C -12.3 °C 34496.6 hPa Calm     52 % 0 mm
22:25 -8.7 °C -12.8 °C 34462.7 hPa Calm     62 % 0 mm
22:26 -6.7 °C -12.3 °C 34496.6 hPa Calm     52 % 0 mm
22:31 -6.7 °C -12.4 °C 34496.6 hPa Calm     52 % 0 mm
22:35 -8.8 °C -12.8 °C 34462.7 hPa SW 5.1 km/h 5.1 km/h 62 % 0 mm
22:36 -6.7 °C -12.4 °C 34496.6 hPa Calm     52 % 0 mm
22:41 -6.7 °C -12.2 °C 34496.6 hPa NNE 3.1 km/h 3.1 km/h 53 % 0 mm
22:45 -8.8 °C -12.8 °C 34462.7 hPa SW 2.6 km/h 5.1 km/h 62 % 0 mm
22:46 -6.8 °C -12.3 °C 34496.6 hPa Calm     53 % 0 mm
22:51 -6.8 °C -12.3 °C 34533.8 hPa Calm     53 % 0 mm
22:55 -8.8 °C -12.8 °C 34462.7 hPa WSW 2.6 km/h 5.1 km/h 62 % 0 mm
22:56 -6.8 °C -12.3 °C 34533.8 hPa NW 3.1 km/h 3.1 km/h 53 % 0 mm
23:01 -6.9 °C -12.2 °C 34533.8 hPa NNW 3.1 km/h   54 % 0 mm
23:06 -6.9 °C -12.3 °C 34533.8 hPa Calm     54 % 0 mm
23:11 -7 °C -12.2 °C 34533.8 hPa NNW 3.1 km/h   55 % 0 mm
23:15 -8.8 °C -12.7 °C 34462.7 hPa Calm     63 % 0 mm
23:16 -7 °C -12.2 °C 34533.8 hPa Calm     55 % 0 mm
23:21 -7.1 °C -12.2 °C 34533.8 hPa NNE 5.1 km/h 5.1 km/h 55 % 0 mm
23:25 -8.8 °C -12.7 °C 34462.7 hPa Calm     63 % 0 mm
23:26 -7.1 °C -12.2 °C 34533.8 hPa NNE 3.1 km/h   55 % 0 mm
23:31 -7.1 °C -12.3 °C 34533.8 hPa Calm     55 % 0 mm
23:35 -8.8 °C -12.7 °C 34428.8 hPa Calm     63 % 0 mm
23:36 -7.1 °C -12.3 °C 34533.8 hPa West 3.1 km/h 3.1 km/h 55 % 0 mm
23:41 -7.2 °C -12.3 °C 34533.8 hPa Calm     55 % 0 mm
23:45 -8.7 °C -12.6 °C 34428.8 hPa SW 2.6 km/h 2.6 km/h 63 % 0 mm
23:46 -7.2 °C -12.2 °C 34533.8 hPa Calm     56 % 0 mm
23:51 -7.2 °C -12.2 °C 34533.8 hPa Calm     56 % 0 mm
23:55 -8.7 °C -12.6 °C 34462.7 hPa Calm     63 % 0 mm
23:56 -7.2 °C -12.2 °C 34533.8 hPa Calm     56 % 0 mm
Meteo Sesrovires
Elogis d' Weather Underground - 3.75 mb

Guio original per  Jim McMurry - jmcmurry@mwt.net Adaptat per a la plantilla per  Wim van der Kuil - Leuven-Template.eu

Trobareu la nostra informacio del temps tambe a:

Weather Underground

AWEKAS